sensor_id;sensor_type;location;lat;lon;timestamp;temperature;humidity
6752;DHT22;3413;47.680;9.166;2023-08-30T05:11:00;17.00;89.70
6752;DHT22;3413;47.680;9.166;2023-08-30T05:16:04;17.00;89.70
6752;DHT22;3413;47.680;9.166;2023-08-30T05:21:08;17.00;89.80
6752;DHT22;3413;47.680;9.166;2023-08-30T05:26:11;17.00;89.70
6752;DHT22;3413;47.680;9.166;2023-08-30T05:31:18;17.10;89.80
6752;DHT22;3413;47.680;9.166;2023-08-30T05:36:34;17.10;89.80
6752;DHT22;3413;47.680;9.166;2023-08-30T05:41:49;17.10;89.90
6752;DHT22;3413;47.680;9.166;2023-08-30T05:46:51;17.20;90.00
6752;DHT22;3413;47.680;9.166;2023-08-30T05:51:53;17.20;90.00
6752;DHT22;3413;47.680;9.166;2023-08-30T05:56:55;17.20;90.00
6752;DHT22;3413;47.680;9.166;2023-08-30T06:01:57;17.20;90.00
6752;DHT22;3413;47.680;9.166;2023-08-30T06:06:59;17.30;90.00
6752;DHT22;3413;47.680;9.166;2023-08-30T06:12:01;17.30;90.10
6752;DHT22;3413;47.680;9.166;2023-08-30T06:17:03;17.40;90.10
6752;DHT22;3413;47.680;9.166;2023-08-30T06:22:05;17.40;90.10
6752;DHT22;3413;47.680;9.166;2023-08-30T06:27:07;17.50;90.20
6752;DHT22;3413;47.680;9.166;2023-08-30T06:32:09;17.60;90.20
6752;DHT22;3413;47.680;9.166;2023-08-30T06:37:11;17.60;90.30
6752;DHT22;3413;47.680;9.166;2023-08-30T06:42:13;17.70;90.30
6752;DHT22;3413;47.680;9.166;2023-08-30T06:47:15;17.80;90.30
6752;DHT22;3413;47.680;9.166;2023-08-30T06:52:17;17.80;90.30
6752;DHT22;3413;47.680;9.166;2023-08-30T06:57:19;17.90;90.40
6752;DHT22;3413;47.680;9.166;2023-08-30T07:02:21;18.00;90.50
6752;DHT22;3413;47.680;9.166;2023-08-30T07:07:23;18.10;90.60
6752;DHT22;3413;47.680;9.166;2023-08-30T07:12:25;18.20;90.60
6752;DHT22;3413;47.680;9.166;2023-08-30T07:17:27;18.30;90.70
6752;DHT22;3413;47.680;9.166;2023-08-30T07:22:47;18.30;90.70
6752;DHT22;3413;47.680;9.166;2023-08-30T07:27:49;18.40;90.80
6752;DHT22;3413;47.680;9.166;2023-08-30T07:32:51;18.50;90.80
6752;DHT22;3413;47.680;9.166;2023-08-30T07:37:54;18.70;90.90
6752;DHT22;3413;47.680;9.166;2023-08-30T07:42:55;18.70;91.00
6752;DHT22;3413;47.680;9.166;2023-08-30T07:48:00;18.90;91.20
6752;DHT22;3413;47.680;9.166;2023-08-30T07:53:02;19.00;91.20
6752;DHT22;3413;47.680;9.166;2023-08-30T07:58:04;19.20;91.20
6752;DHT22;3413;47.680;9.166;2023-08-30T08:03:06;19.40;91.20
6752;DHT22;3413;47.680;9.166;2023-08-30T08:08:09;19.60;91.30
6752;DHT22;3413;47.680;9.166;2023-08-30T08:13:13;19.70;91.30
6752;DHT22;3413;47.680;9.166;2023-08-30T08:18:16;19.80;91.20
6752;DHT22;3413;47.680;9.166;2023-08-30T08:23:18;19.90;91.30
6752;DHT22;3413;47.680;9.166;2023-08-30T08:28:20;20.00;91.10
6752;DHT22;3413;47.680;9.166;2023-08-30T08:33:22;20.00;91.20
6752;DHT22;3413;47.680;9.166;2023-08-30T08:38:25;19.80;91.10
6752;DHT22;3413;47.680;9.166;2023-08-30T08:43:29;19.70;91.20
6752;DHT22;3413;47.680;9.166;2023-08-30T08:48:31;19.80;91.10
6752;DHT22;3413;47.680;9.166;2023-08-30T08:53:35;19.70;91.10
6752;DHT22;3413;47.680;9.166;2023-08-30T08:58:38;19.60;91.10
6752;DHT22;3413;47.680;9.166;2023-08-30T09:03:40;19.70;91.20
6752;DHT22;3413;47.680;9.166;2023-08-30T09:08:42;19.90;91.30
6752;DHT22;3413;47.680;9.166;2023-08-30T09:13:44;20.00;91.30
6752;DHT22;3413;47.680;9.166;2023-08-30T09:19:00;20.30;91.20
6752;DHT22;3413;47.680;9.166;2023-08-30T09:24:06;20.70;91.20
6752;DHT22;3413;47.680;9.166;2023-08-30T09:29:08;21.00;91.20
6752;DHT22;3413;47.680;9.166;2023-08-30T09:34:10;21.10;91.40
6752;DHT22;3413;47.680;9.166;2023-08-30T09:39:14;21.20;91.30
6752;DHT22;3413;47.680;9.166;2023-08-30T09:44:20;21.30;91.40
6752;DHT22;3413;47.680;9.166;2023-08-30T09:49:26;21.30;91.30
6752;DHT22;3413;47.680;9.166;2023-08-30T09:54:30;21.40;91.40
6752;DHT22;3413;47.680;9.166;2023-08-30T09:59:42;21.40;91.40
6752;DHT22;3413;47.680;9.166;2023-08-30T10:04:45;21.50;91.50
6752;DHT22;3413;47.680;9.166;2023-08-30T10:09:48;21.70;91.60
6752;DHT22;3413;47.680;9.166;2023-08-30T10:15:10;21.90;91.40
6752;DHT22;3413;47.680;9.166;2023-08-30T10:20:12;21.80;91.40
6752;DHT22;3413;47.680;9.166;2023-08-30T10:25:21;22.00;91.50
6752;DHT22;3413;47.680;9.166;2023-08-30T10:30:25;22.00;91.40
6752;DHT22;3413;47.680;9.166;2023-08-30T10:35:27;22.00;91.40
6752;DHT22;3413;47.680;9.166;2023-08-30T10:40:29;22.20;91.40
6752;DHT22;3413;47.680;9.166;2023-08-30T10:45:31;22.20;91.40
6752;DHT22;3413;47.680;9.166;2023-08-30T10:50:34;22.20;91.40
6752;DHT22;3413;47.680;9.166;2023-08-30T10:55:36;22.40;91.30
6752;DHT22;3413;47.680;9.166;2023-08-30T11:00:39;22.30;91.20
6752;DHT22;3413;47.680;9.166;2023-08-30T11:05:42;22.20;91.20
6752;DHT22;3413;47.680;9.166;2023-08-30T11:10:44;22.30;91.10
6752;DHT22;3413;47.680;9.166;2023-08-30T11:15:46;22.30;91.00
6752;DHT22;3413;47.680;9.166;2023-08-30T11:20:48;22.30;91.00
6752;DHT22;3413;47.680;9.166;2023-08-30T11:25:54;22.50;91.10
6752;DHT22;3413;47.680;9.166;2023-08-30T11:30:56;22.60;91.00
6752;DHT22;3413;47.680;9.166;2023-08-30T11:35:58;22.70;91.00
6752;DHT22;3413;47.680;9.166;2023-08-30T11:41:02;22.90;91.00
6752;DHT22;3413;47.680;9.166;2023-08-30T11:46:04;23.20;90.90
6752;DHT22;3413;47.680;9.166;2023-08-30T11:51:07;23.10;90.80
6752;DHT22;3413;47.680;9.166;2023-08-30T11:56:09;23.20;90.80
6752;DHT22;3413;47.680;9.166;2023-08-30T12:01:12;23.50;90.80
6752;DHT22;3413;47.680;9.166;2023-08-30T12:06:15;23.50;90.80
6752;DHT22;3413;47.680;9.166;2023-08-30T12:11:18;23.60;90.70
6752;DHT22;3413;47.680;9.166;2023-08-30T12:16:24;23.80;90.70
6752;DHT22;3413;47.680;9.166;2023-08-30T12:21:28;23.90;90.60
6752;DHT22;3413;47.680;9.166;2023-08-30T12:26:44;24.10;90.50
6752;DHT22;3413;47.680;9.166;2023-08-30T12:31:47;24.30;90.30
6752;DHT22;3413;47.680;9.166;2023-08-30T12:36:50;24.50;90.30
6752;DHT22;3413;47.680;9.166;2023-08-30T12:41:52;24.50;90.40
6752;DHT22;3413;47.680;9.166;2023-08-30T12:46:57;24.60;90.40
6752;DHT22;3413;47.680;9.166;2023-08-30T12:52:00;24.70;90.20
6752;DHT22;3413;47.680;9.166;2023-08-30T12:57:05;24.80;90.10
6752;DHT22;3413;47.680;9.166;2023-08-30T13:02:07;24.70;90.00
6752;DHT22;3413;47.680;9.166;2023-08-30T13:07:10;24.90;90.00
6752;DHT22;3413;47.680;9.166;2023-08-30T13:12:13;24.80;89.70
6752;DHT22;3413;47.680;9.166;2023-08-30T13:17:15;24.80;89.50
6752;DHT22;3413;47.680;9.166;2023-08-30T13:22:19;24.90;89.60
6752;DHT22;3413;47.680;9.166;2023-08-30T13:27:21;24.80;89.80
6752;DHT22;3413;47.680;9.166;2023-08-30T13:32:24;24.80;90.00
6752;DHT22;3413;47.680;9.166;2023-08-30T13:37:26;24.90;90.00
6752;DHT22;3413;47.680;9.166;2023-08-30T13:42:28;24.90;90.20
6752;DHT22;3413;47.680;9.166;2023-08-30T13:47:31;25.00;90.00
6752;DHT22;3413;47.680;9.166;2023-08-30T13:52:33;25.20;90.00
6752;DHT22;3413;47.680;9.166;2023-08-30T13:57:35;25.40;89.70
6752;DHT22;3413;47.680;9.166;2023-08-30T14:02:37;25.60;89.20
6752;DHT22;3413;47.680;9.166;2023-08-30T14:07:40;25.80;88.50
6752;DHT22;3413;47.680;9.166;2023-08-30T14:12:41;25.70;88.50
6752;DHT22;3413;47.680;9.166;2023-08-30T14:17:46;25.60;88.70
6752;DHT22;3413;47.680;9.166;2023-08-30T14:22:49;25.70;88.40
6752;DHT22;3413;47.680;9.166;2023-08-30T14:27:52;25.60;88.40
6752;DHT22;3413;47.680;9.166;2023-08-30T14:32:54;25.60;88.40
6752;DHT22;3413;47.680;9.166;2023-08-30T14:37:57;25.70;88.60
6752;DHT22;3413;47.680;9.166;2023-08-30T14:42:59;25.90;88.20
6752;DHT22;3413;47.680;9.166;2023-08-30T14:48:01;26.10;88.30
6752;DHT22;3413;47.680;9.166;2023-08-30T14:53:04;26.10;87.80
6752;DHT22;3413;47.680;9.166;2023-08-30T14:58:07;25.90;87.90
6752;DHT22;3413;47.680;9.166;2023-08-30T15:03:09;25.90;87.80
6752;DHT22;3413;47.680;9.166;2023-08-30T15:08:11;25.90;87.40
6752;DHT22;3413;47.680;9.166;2023-08-30T15:13:14;25.80;87.30
6752;DHT22;3413;47.680;9.166;2023-08-30T15:18:16;25.80;87.90
6752;DHT22;3413;47.680;9.166;2023-08-30T15:23:19;25.70;87.00
6752;DHT22;3413;47.680;9.166;2023-08-30T15:28:21;25.70;86.80
6752;DHT22;3413;47.680;9.166;2023-08-30T15:33:23;25.60;86.50
6752;DHT22;3413;47.680;9.166;2023-08-30T15:38:26;25.60;86.50
6752;DHT22;3413;47.680;9.166;2023-08-30T15:43:28;25.50;86.20
6752;DHT22;3413;47.680;9.166;2023-08-30T15:48:30;25.50;86.20
6752;DHT22;3413;47.680;9.166;2023-08-30T15:53:32;25.30;86.00
6752;DHT22;3413;47.680;9.166;2023-08-30T15:58:33;25.20;85.90
6752;DHT22;3413;47.680;9.166;2023-08-30T16:03:36;25.00;85.80
6752;DHT22;3413;47.680;9.166;2023-08-30T16:08:38;24.90;85.80
6752;DHT22;3413;47.680;9.166;2023-08-30T16:13:40;25.00;85.70
6752;DHT22;3413;47.680;9.166;2023-08-30T16:18:42;24.90;85.30
6752;DHT22;3413;47.680;9.166;2023-08-30T16:23:44;24.60;84.70
6752;DHT22;3413;47.680;9.166;2023-08-30T16:28:46;24.50;84.60
6752;DHT22;3413;47.680;9.166;2023-08-30T16:33:48;24.20;84.50
6752;DHT22;3413;47.680;9.166;2023-08-30T16:38:53;24.20;84.40
6752;DHT22;3413;47.680;9.166;2023-08-30T16:43:55;24.20;84.20
6752;DHT22;3413;47.680;9.166;2023-08-30T16:48:57;24.30;84.00
6752;DHT22;3413;47.680;9.166;2023-08-30T16:53:59;24.20;83.70
6752;DHT22;3413;47.680;9.166;2023-08-30T16:59:02;24.10;83.60
6752;DHT22;3413;47.680;9.166;2023-08-30T17:04:04;24.00;83.70
6752;DHT22;3413;47.680;9.166;2023-08-30T17:09:06;24.00;83.80
6752;DHT22;3413;47.680;9.166;2023-08-30T17:14:10;23.90;83.60
6752;DHT22;3413;47.680;9.166;2023-08-30T17:19:12;23.80;83.70
6752;DHT22;3413;47.680;9.166;2023-08-30T17:24:14;23.60;83.60
6752;DHT22;3413;47.680;9.166;2023-08-30T17:29:16;23.40;83.60
6752;DHT22;3413;47.680;9.166;2023-08-30T17:34:20;23.30;83.50
6752;DHT22;3413;47.680;9.166;2023-08-30T17:39:21;23.20;83.30
6752;DHT22;3413;47.680;9.166;2023-08-30T17:44:25;23.20;83.30
6752;DHT22;3413;47.680;9.166;2023-08-30T17:49:27;23.30;83.10
6752;DHT22;3413;47.680;9.166;2023-08-30T17:54:29;23.30;82.90
6752;DHT22;3413;47.680;9.166;2023-08-30T17:59:34;23.20;82.80
6752;DHT22;3413;47.680;9.166;2023-08-30T18:04:37;23.10;83.00
6752;DHT22;3413;47.680;9.166;2023-08-30T18:09:40;23.10;83.10
6752;DHT22;3413;47.680;9.166;2023-08-30T18:14:42;23.20;83.10
6752;DHT22;3413;47.680;9.166;2023-08-30T18:19:48;23.10;83.00
6752;DHT22;3413;47.680;9.166;2023-08-30T18:24:50;23.10;83.00
6752;DHT22;3413;47.680;9.166;2023-08-30T18:29:52;22.90;82.80
6752;DHT22;3413;47.680;9.166;2023-08-30T18:34:54;23.00;82.70
6752;DHT22;3413;47.680;9.166;2023-08-30T18:39:56;22.90;82.50
6752;DHT22;3413;47.680;9.166;2023-08-30T18:44:58;22.90;82.60
6752;DHT22;3413;47.680;9.166;2023-08-30T18:50:00;22.70;82.60
6752;DHT22;3413;47.680;9.166;2023-08-30T18:55:02;22.70;82.40
6752;DHT22;3413;47.680;9.166;2023-08-30T19:00:05;22.50;82.20
6752;DHT22;3413;47.680;9.166;2023-08-30T19:05:07;22.30;82.20
6752;DHT22;3413;47.680;9.166;2023-08-30T19:10:10;22.20;82.20
6752;DHT22;3413;47.680;9.166;2023-08-30T19:15:12;22.00;82.10
6752;DHT22;3413;47.680;9.166;2023-08-30T19:20:15;22.00;82.10
6752;DHT22;3413;47.680;9.166;2023-08-30T19:25:17;22.00;82.10
6752;DHT22;3413;47.680;9.166;2023-08-30T19:30:21;21.90;82.40
6752;DHT22;3413;47.680;9.166;2023-08-30T19:35:23;21.90;82.30
6752;DHT22;3413;47.680;9.166;2023-08-30T19:40:28;21.80;82.00
6752;DHT22;3413;47.680;9.166;2023-08-30T19:45:31;21.60;81.80
6752;DHT22;3413;47.680;9.166;2023-08-30T19:50:34;21.50;81.90
6752;DHT22;3413;47.680;9.166;2023-08-30T19:55:36;21.50;82.00
6752;DHT22;3413;47.680;9.166;2023-08-30T20:00:38;21.60;82.00
6752;DHT22;3413;47.680;9.166;2023-08-30T20:05:59;21.60;81.90
6752;DHT22;3413;47.680;9.166;2023-08-30T20:11:05;21.50;81.90
6752;DHT22;3413;47.680;9.166;2023-08-30T20:16:07;21.50;82.70
6752;DHT22;3413;47.680;9.166;2023-08-30T20:21:12;21.60;82.20
6752;DHT22;3413;47.680;9.166;2023-08-30T20:26:15;21.60;82.10
6752;DHT22;3413;47.680;9.166;2023-08-30T20:31:17;21.60;82.00
6752;DHT22;3413;47.680;9.166;2023-08-30T20:36:19;21.50;82.00
6752;DHT22;3413;47.680;9.166;2023-08-30T20:41:35;21.40;82.10
6752;DHT22;3413;47.680;9.166;2023-08-30T20:46:37;21.40;82.20
6752;DHT22;3413;47.680;9.166;2023-08-30T20:51:39;21.30;82.20
6752;DHT22;3413;47.680;9.166;2023-08-30T20:56:45;21.20;82.20
6752;DHT22;3413;47.680;9.166;2023-08-30T21:01:48;21.10;82.30
6752;DHT22;3413;47.680;9.166;2023-08-30T21:06:50;21.00;82.20
6752;DHT22;3413;47.680;9.166;2023-08-30T21:11:53;20.90;82.20
6752;DHT22;3413;47.680;9.166;2023-08-30T21:16:55;20.80;82.20
6752;DHT22;3413;47.680;9.166;2023-08-30T21:21:57;20.70;82.30
6752;DHT22;3413;47.680;9.166;2023-08-30T21:26:59;20.60;82.00
6752;DHT22;3413;47.680;9.166;2023-08-30T21:32:01;20.50;82.10
6752;DHT22;3413;47.680;9.166;2023-08-30T21:37:05;20.50;82.10
6752;DHT22;3413;47.680;9.166;2023-08-30T21:42:07;20.50;82.20
6752;DHT22;3413;47.680;9.166;2023-08-30T21:47:09;20.50;82.20
6752;DHT22;3413;47.680;9.166;2023-08-30T21:52:11;20.40;82.20
6752;DHT22;3413;47.680;9.166;2023-08-30T21:57:13;20.40;82.20
6752;DHT22;3413;47.680;9.166;2023-08-30T22:02:15;20.40;82.20
6752;DHT22;3413;47.680;9.166;2023-08-30T22:07:17;20.40;82.20
6752;DHT22;3413;47.680;9.166;2023-08-30T22:12:20;20.40;82.20
6752;DHT22;3413;47.680;9.166;2023-08-30T22:17:22;20.30;82.20
6752;DHT22;3413;47.680;9.166;2023-08-30T22:22:24;20.30;82.20
6752;DHT22;3413;47.680;9.166;2023-08-30T22:27:26;20.30;82.20
6752;DHT22;3413;47.680;9.166;2023-08-30T22:32:28;20.20;82.10
6752;DHT22;3413;47.680;9.166;2023-08-30T22:37:32;20.10;82.10
6752;DHT22;3413;47.680;9.166;2023-08-30T22:42:38;20.10;82.20
6752;DHT22;3413;47.680;9.166;2023-08-30T22:47:40;20.00;82.10
6752;DHT22;3413;47.680;9.166;2023-08-30T22:52:45;20.00;82.10
6752;DHT22;3413;47.680;9.166;2023-08-30T22:57:47;19.90;82.20
6752;DHT22;3413;47.680;9.166;2023-08-30T23:02:50;19.90;82.20
6752;DHT22;3413;47.680;9.166;2023-08-30T23:07:52;19.90;82.20
6752;DHT22;3413;47.680;9.166;2023-08-30T23:12:55;19.80;82.10
6752;DHT22;3413;47.680;9.166;2023-08-30T23:17:58;19.70;82.10
6752;DHT22;3413;47.680;9.166;2023-08-30T23:23:04;19.60;82.10
6752;DHT22;3413;47.680;9.166;2023-08-30T23:28:06;19.50;82.00
6752;DHT22;3413;47.680;9.166;2023-08-30T23:33:08;19.50;82.10
6752;DHT22;3413;47.680;9.166;2023-08-30T23:38:11;19.30;82.20
6752;DHT22;3413;47.680;9.166;2023-08-30T23:43:12;19.30;82.40
6752;DHT22;3413;47.680;9.166;2023-08-30T23:48:14;19.30;82.40
6752;DHT22;3413;47.680;9.166;2023-08-30T23:53:16;19.40;82.30
6752;DHT22;3413;47.680;9.166;2023-08-30T23:58:19;19.50;82.30
